Time;durP1;ratioP1;P1;durP2;ratioP2;P2;SDS_P1;SDS_P2;PMS_P1;PMS_P2;Temp;Humidity;BMP_temperature;BMP_pressure;BME280_temperature;BME280_humidity;BME280_pressure;Samples;Min_cycle;Max_cycle;Signal;HPM_P1;HPM_P2
2022/05/16 00:00:29;;;;;;;4.50;2.37;;;;;;;17.51;52.70;100127.16;4343463;33;33125;-83
2022/05/16 00:03:01;;;;;;;2.20;1.90;;;;;;;17.52;52.78;100125.34;4343069;33;33935;-84
2022/05/16 00:05:30;;;;;;;3.28;2.10;;;;;;;17.46;52.86;100121.28;4342848;33;33263;-83
2022/05/16 00:08:00;;;;;;;4.68;3.55;;;;;;;17.47;52.76;100132.81;4342142;33;32285;-82
2022/05/16 00:10:28;;;;;;;5.53;2.50;;;;;;;17.46;52.74;100131.97;4342772;33;33867;-82
2022/05/16 00:12:56;;;;;;;4.22;2.30;;;;;;;17.41;52.99;100144.78;4340943;33;34156;-83
2022/05/16 00:15:25;;;;;;;2.92;2.35;;;;;;;17.39;53.25;100136.03;4342294;33;32802;-82
2022/05/16 00:17:53;;;;;;;4.50;2.55;;;;;;;17.34;52.76;100138.13;4342347;33;33222;-82
2022/05/16 00:20:21;;;;;;;4.22;2.72;;;;;;;17.34;52.67;100132.81;4342651;33;32352;-82
2022/05/16 00:22:49;;;;;;;6.15;2.80;;;;;;;17.47;52.67;100128.37;4342066;33;32976;-83
2022/05/16 00:25:17;;;;;;;3.55;2.10;;;;;;;17.20;52.85;100130.19;4342664;32;33218;-83
2022/05/16 00:27:46;;;;;;;5.37;2.10;;;;;;;17.24;52.81;100137.03;4344077;33;34222;-83
2022/05/16 00:30:17;;;;;;;4.32;2.28;;;;;;;17.34;52.50;100130.12;4344782;33;33930;-83
2022/05/16 00:32:48;;;;;;;4.47;2.55;;;;;;;17.27;53.03;100136.81;4342592;33;33237;-82
2022/05/16 00:35:21;;;;;;;5.82;2.37;;;;;;;17.26;53.17;100135.13;4343844;33;34214;-83
2022/05/16 00:37:51;;;;;;;3.78;2.15;;;;;;;17.25;53.23;100138.75;4342394;33;33211;-82
2022/05/16 00:40:20;;;;;;;4.28;2.80;;;;;;;17.27;53.25;100137.66;4346866;33;34333;-83
2022/05/16 00:42:48;;;;;;;5.37;2.10;;;;;;;17.20;53.49;100135.53;4334590;33;33015;-82
2022/05/16 00:45:17;;;;;;;5.62;3.40;;;;;;;17.34;53.03;100132.81;4332915;33;32751;-82
2022/05/16 00:47:46;;;;;;;2.78;1.95;;;;;;;17.38;52.78;100145.00;4344177;33;33549;-82
2022/05/16 00:50:14;;;;;;;2.95;2.50;;;;;;;17.30;53.34;100139.28;4338068;33;33317;-82
2022/05/16 00:52:45;;;;;;;8.73;2.62;;;;;;;17.23;53.47;100135.31;4334762;33;33764;-81
2022/05/16 00:55:19;;;;;;;4.72;2.55;;;;;;;17.20;53.51;100144.38;4346752;33;33428;-82
2022/05/16 00:57:50;;;;;;;3.53;2.20;;;;;;;17.21;53.56;100134.56;4346581;33;32817;-82
2022/05/16 01:00:23;;;;;;;3.00;2.22;;;;;;;17.17;53.49;100135.72;4334988;33;33537;-84
2022/05/16 01:05:40;;;;;;;3.62;2.12;;;;;;;16.89;54.01;100146.34;4346651;33;33724;-83
2022/05/16 01:08:11;;;;;;;4.22;2.28;;;;;;;16.99;53.88;100143.94;4345259;33;32797;-82
2022/05/16 01:10:39;;;;;;;2.78;2.35;;;;;;;17.31;53.00;100143.66;4333288;33;34729;-82
2022/05/16 01:13:07;;;;;;;4.37;2.37;;;;;;;17.14;53.62;100152.81;4346442;33;34710;-82
2022/05/16 01:15:37;;;;;;;2.97;2.30;;;;;;;17.04;53.95;100155.22;4333514;33;32560;-83
2022/05/16 01:18:08;;;;;;;3.10;2.33;;;;;;;16.99;54.26;100151.97;4346457;33;33086;-82
2022/05/16 01:20:45;;;;;;;3.67;2.12;;;;;;;17.01;54.25;100159.88;4333094;33;33264;-84
2022/05/16 01:23:15;;;;;;;5.90;2.60;;;;;;;16.55;54.94;100155.63;4346194;33;34504;-84
2022/05/16 01:25:43;;;;;;;3.03;2.22;;;;;;;16.56;54.87;100157.31;4346418;33;33850;-85
2022/05/16 01:28:17;;;;;;;6.10;2.92;;;;;;;16.38;55.14;100164.69;4333024;33;33511;-84
2022/05/16 01:30:47;;;;;;;5.62;2.17;;;;;;;16.55;54.45;100162.75;4345153;33;34075;-85
2022/05/16 01:33:17;;;;;;;5.37;2.55;;;;;;;16.38;54.55;100147.84;4345008;33;34055;-84
2022/05/16 01:35:45;;;;;;;4.03;1.85;;;;;;;16.46;54.48;100152.69;4346712;33;33596;-84
2022/05/16 01:38:18;;;;;;;3.05;2.35;;;;;;;16.65;52.29;100154.09;4343992;33;35062;-84
2022/05/16 01:40:47;;;;;;;5.05;3.03;;;;;;;16.64;51.52;100159.53;4343725;33;33494;-84
2022/05/16 01:43:16;;;;;;;4.72;2.30;;;;;;;16.79;50.52;100166.56;4341563;33;34675;-84
2022/05/16 01:45:44;;;;;;;7.95;2.35;;;;;;;16.97;50.19;100159.22;4342925;33;32907;-83
2022/05/16 01:48:14;;;;;;;5.47;2.75;;;;;;;17.24;49.26;100167.25;4343550;33;33186;-85
2022/05/16 01:50:44;;;;;;;2.87;2.40;;;;;;;17.48;48.75;100163.91;4343873;33;34388;-84
2022/05/16 01:53:12;;;;;;;5.15;2.40;;;;;;;17.88;50.46;100159.44;4336927;33;33443;-84
2022/05/16 01:55:40;;;;;;;3.83;2.58;;;;;;;18.00;51.24;100153.28;4331793;33;33115;-85
2022/05/16 01:58:09;;;;;;;3.42;2.55;;;;;;;17.87;51.26;100161.25;4344171;33;33516;-85
2022/05/16 02:00:37;;;;;;;4.50;2.42;;;;;;;17.88;51.71;100160.28;4344241;33;33228;-85
2022/05/16 02:03:09;;;;;;;3.67;2.87;;;;;;;17.65;52.33;100161.81;4343795;33;34033;-85
2022/05/16 02:05:37;;;;;;;3.35;2.40;;;;;;;17.34;53.32;100165.69;4343761;33;34904;-84
2022/05/16 02:08:05;;;;;;;3.58;2.75;;;;;;;17.39;53.98;100170.72;4344137;33;31873;-84
2022/05/16 02:10:33;;;;;;;5.30;2.83;;;;;;;17.35;54.35;100177.22;4332014;33;32525;-84
2022/05/16 02:13:03;;;;;;;2.65;2.42;;;;;;;17.48;54.06;100171.94;4343371;33;32942;-84
2022/05/16 02:15:33;;;;;;;4.82;2.85;;;;;;;17.50;54.25;100170.84;4344117;33;34830;-84
2022/05/16 02:18:02;;;;;;;4.20;2.60;;;;;;;17.30;54.66;100169.50;4342779;32;33852;-84
2022/05/16 02:20:30;;;;;;;4.62;2.40;;;;;;;17.15;55.16;100171.38;4344151;33;33216;-84
2022/05/16 02:25:46;;;;;;;4.35;2.92;;;;;;;17.17;54.82;100173.94;4340248;33;34178;-85
2022/05/16 02:28:17;;;;;;;5.03;2.87;;;;;;;17.29;54.40;100172.28;4344357;33;32492;-84
2022/05/16 02:30:52;;;;;;;4.87;2.42;;;;;;;17.13;55.10;100178.59;4344360;33;33493;-85
2022/05/16 02:33:20;;;;;;;2.97;2.62;;;;;;;17.21;54.54;100179.94;4344263;33;34465;-84
2022/05/16 02:35:48;;;;;;;8.23;2.97;;;;;;;17.12;55.08;100181.38;4343589;33;34382;-84
2022/05/16 02:38:18;;;;;;;6.65;2.83;;;;;;;17.09;55.26;100177.13;4355724;32;32158;-84
2022/05/16 02:40:49;;;;;;;7.47;2.95;;;;;;;17.12;54.97;100176.91;4341177;32;32444;-84
2022/05/16 02:43:17;;;;;;;3.90;2.62;;;;;;;16.96;55.32;100181.53;4331186;33;34454;-84
2022/05/16 02:45:53;;;;;;;4.35;2.40;;;;;;;16.72;55.81;100177.75;4343208;33;34393;-84
2022/05/16 02:48:21;;;;;;;7.95;2.70;;;;;;;16.98;54.95;100174.25;4333686;33;33284;-85
2022/05/16 02:50:49;;;;;;;5.78;2.80;;;;;;;16.85;55.15;100173.31;4331910;33;32924;-85
2022/05/16 02:53:17;;;;;;;3.90;3.03;;;;;;;16.75;55.41;100177.53;4339771;33;33824;-84
2022/05/16 02:55:45;;;;;;;3.08;2.10;;;;;;;16.64;55.63;100175.53;4331537;33;33019;-85
2022/05/16 02:58:13;;;;;;;6.68;2.97;;;;;;;16.80;55.26;100173.63;4343600;33;33087;-86
2022/05/16 03:00:42;;;;;;;3.90;2.33;;;;;;;16.79;55.48;100176.37;4341384;33;33687;-85
2022/05/16 03:03:10;;;;;;;5.15;3.03;;;;;;;16.76;55.36;100176.56;4344132;33;33179;-86
2022/05/16 03:05:38;;;;;;;2.67;2.47;;;;;;;16.76;55.43;100169.47;4343920;33;34093;-84
2022/05/16 03:08:08;;;;;;;5.15;2.80;;;;;;;16.77;55.63;100178.31;4343939;33;32986;-84
2022/05/16 03:10:36;;;;;;;7.07;2.62;;;;;;;16.77;55.50;100180.97;4344112;33;33478;-84
2022/05/16 03:13:04;;;;;;;9.50;3.25;;;;;;;17.00;55.20;100172.37;4326123;33;32886;-84
2022/05/16 03:15:32;;;;;;;7.35;3.35;;;;;;;16.78;55.98;100169.34;4331553;33;33491;-84
2022/05/16 03:18:00;;;;;;;10.57;3.83;;;;;;;16.74;56.24;100176.69;4343466;33;32476;-85
2022/05/16 03:20:28;;;;;;;6.03;2.75;;;;;;;16.62;56.86;100167.62;4343809;33;32795;-84
2022/05/16 03:22:57;;;;;;;3.62;2.83;;;;;;;16.49;57.49;100166.69;4343818;33;33553;-84
2022/05/16 03:25:25;;;;;;;6.60;3.05;;;;;;;16.45;57.86;100170.47;4343330;33;34059;-84
2022/05/16 03:27:55;;;;;;;7.32;2.92;;;;;;;16.67;57.21;100172.66;4341705;33;33161;-84
2022/05/16 03:30:23;;;;;;;6.35;2.95;;;;;;;16.72;57.28;100167.09;4340628;33;33704;-84
2022/05/16 03:32:52;;;;;;;6.32;3.47;;;;;;;16.65;57.63;100171.91;4343457;33;33138;-83
2022/05/16 03:35:21;;;;;;;5.00;3.00;;;;;;;16.74;57.40;100167.81;4342779;33;33847;-83
2022/05/16 03:37:49;;;;;;;8.10;3.53;;;;;;;16.77;57.50;100162.31;4344663;33;33496;-84
2022/05/16 03:43:04;;;;;;;4.25;3.20;;;;;;;16.63;58.27;100173.81;4345582;33;33726;-84
2022/05/16 03:45:33;;;;;;;6.15;2.97;;;;;;;16.97;57.36;100159.22;4321250;33;33433;-84
2022/05/16 03:48:01;;;;;;;4.03;2.90;;;;;;;17.30;56.24;100169.50;4345814;33;33735;-84
2022/05/16 03:50:29;;;;;;;8.00;3.37;;;;;;;17.08;56.90;100170.03;4333846;33;33277;-84
2022/05/16 03:53:03;;;;;;;11.07;2.92;;;;;;;17.12;56.63;100170.69;4326292;33;33313;-84
2022/05/16 03:55:32;;;;;;;4.18;2.95;;;;;;;17.09;56.64;100170.91;4328288;33;33695;-84
2022/05/16 03:58:00;;;;;;;7.00;3.00;;;;;;;17.15;56.46;100166.03;4316713;33;32903;-83
2022/05/16 04:00:28;;;;;;;3.97;2.92;;;;;;;17.29;56.25;100172.28;4331386;33;32813;-83
2022/05/16 04:02:58;;;;;;;4.57;2.90;;;;;;;17.36;56.41;100168.25;4341544;33;33525;-83
2022/05/16 04:05:26;;;;;;;6.97;2.87;;;;;;;17.09;57.45;100174.44;4330569;33;33024;-84
2022/05/16 04:07:54;;;;;;;5.30;3.50;;;;;;;17.33;57.27;100173.81;4329753;33;33529;-84
2022/05/16 04:10:23;;;;;;;6.40;3.60;;;;;;;17.70;56.52;100174.00;4341928;33;34060;-84
2022/05/16 04:12:51;;;;;;;7.32;3.87;;;;;;;17.58;56.84;100179.22;4324029;33;33338;-84
2022/05/16 04:15:21;;;;;;;8.27;3.30;;;;;;;17.80;56.34;100177.78;4325775;33;33690;-83
2022/05/16 04:17:50;;;;;;;8.80;4.25;;;;;;;17.95;56.29;100187.47;4343043;33;33681;-84
2022/05/16 04:20:21;;;;;;;4.40;3.30;;;;;;;17.54;57.55;100193.72;4342212;33;32607;-84
2022/05/16 04:22:49;;;;;;;5.07;3.90;;;;;;;17.41;58.33;100190.16;4338402;33;33015;-84
2022/05/16 04:25:19;;;;;;;5.93;3.72;;;;;;;17.69;57.27;100191.84;4342609;33;34722;-84
2022/05/16 04:27:57;;;;;;;5.30;2.85;;;;;;;17.76;56.40;100197.69;4335319;33;33433;-83
2022/05/16 04:30:25;;;;;;;4.97;2.55;;;;;;;17.83;54.13;100182.94;4327525;33;32935;-83
2022/05/16 04:32:54;;;;;;;5.53;2.33;;;;;;;18.11;53.39;100193.47;4340681;33;33501;-84
2022/05/16 04:35:23;;;;;;;4.68;2.47;;;;;;;18.14;52.16;100193.25;4326404;33;34516;-83
2022/05/16 04:37:52;;;;;;;4.20;2.12;;;;;;;18.25;50.92;100184.50;4343174;33;33977;-83
2022/05/16 04:40:21;;;;;;;4.60;2.60;;;;;;;18.45;47.75;100191.09;4341261;33;34318;-83
2022/05/16 04:42:50;;;;;;;5.37;2.50;;;;;;;18.36;47.64;100189.94;4337807;33;33976;-84
2022/05/16 04:45:21;;;;;;;6.47;2.05;;;;;;;18.65;46.59;100187.88;4320753;33;34056;-84
2022/05/16 04:48:01;;;;;;;4.00;2.20;;;;;;;18.64;46.45;100188.84;4325565;33;33199;-84
2022/05/16 04:50:35;;;;;;;2.22;1.60;;;;;;;18.86;45.53;100190.03;4330686;33;33910;-83
2022/05/16 04:53:05;;;;;;;8.15;2.20;;;;;;;19.07;45.34;100188.47;4339570;33;34024;-83
2022/05/16 04:55:34;;;;;;;5.57;2.20;;;;;;;19.33;43.66;100188.41;4338610;33;31953;-83
2022/05/16 04:58:03;;;;;;;5.03;2.05;;;;;;;19.30;43.54;100193.97;4334422;33;34140;-84
2022/05/16 05:00:32;;;;;;;8.10;2.65;;;;;;;19.37;43.19;100187.19;4343402;33;33952;-83
2022/05/16 05:03:00;;;;;;;8.20;2.35;;;;;;;19.09;43.94;100197.25;4344225;33;32753;-84
2022/05/16 05:05:30;;;;;;;3.92;1.87;;;;;;;19.31;43.13;100195.66;4331206;33;32865;-83
2022/05/16 05:07:59;;;;;;;5.82;2.22;;;;;;;19.48;42.62;100192.59;4344703;33;33634;-84
2022/05/16 05:16:17;;;;;;;4.10;1.70;;;;;;;20.17;41.02;100196.28;4341746;33;33753;-84
2022/05/16 05:18:45;;;;;;;6.45;3.03;;;;;;;20.51;39.88;100199.06;4343928;33;33364;-84
2022/05/16 05:21:13;;;;;;;4.70;2.17;;;;;;;20.70;39.45;100193.09;4331802;33;33828;-84
2022/05/16 05:23:41;;;;;;;6.40;2.30;;;;;;;20.52;39.79;100206.13;4341515;33;34033;-84
2022/05/16 05:26:10;;;;;;;5.00;2.08;;;;;;;20.67;38.56;100194.19;4332920;33;34460;-84
2022/05/16 05:28:41;;;;;;;8.10;2.53;;;;;;;20.99;39.17;100198.81;4325071;33;32818;-84
2022/05/16 05:31:13;;;;;;;4.62;1.77;;;;;;;21.32;38.36;100194.41;4326583;33;34148;-88
2022/05/16 05:33:42;;;;;;;3.42;1.37;;;;;;;21.21;38.96;100200.59;4340023;33;34506;-86
2022/05/16 05:36:19;;;;;;;4.00;1.87;;;;;;;21.26;36.68;100200.22;4343936;33;33146;-87
2022/05/16 05:38:51;;;;;;;3.85;1.27;;;;;;;20.95;37.28;100202.72;4328967;33;32505;-87
2022/05/16 05:41:28;;;;;;;5.47;2.25;;;;;;;21.15;36.94;100196.59;4320417;33;34650;-86
2022/05/16 05:43:57;;;;;;;5.75;1.90;;;;;;;21.56;36.96;100197.75;4315157;33;34146;-87
2022/05/16 05:46:34;;;;;;;6.28;2.60;;;;;;;21.57;37.33;100195.91;4329337;33;32117;-87
2022/05/16 05:49:04;;;;;;;5.35;2.60;;;;;;;21.44;37.69;100204.97;4342081;33;33449;-87
2022/05/16 05:51:33;;;;;;;9.95;2.28;;;;;;;21.81;36.73;100206.44;4327302;33;34527;-87
2022/05/16 05:54:02;;;;;;;3.97;1.83;;;;;;;21.73;36.94;100209.75;4340489;33;33549;-86
2022/05/16 05:56:33;;;;;;;5.10;1.80;;;;;;;21.95;35.26;100198.06;4340479;33;33839;-87
2022/05/16 05:59:03;;;;;;;3.10;1.58;;;;;;;22.08;34.76;100196.03;4328871;33;32926;-87
2022/05/16 06:01:32;;;;;;;5.82;2.22;;;;;;;22.40;35.43;100201.34;4336651;33;33221;-88
2022/05/16 06:04:01;;;;;;;6.97;1.52;;;;;;;22.13;34.39;100207.28;4307898;33;33949;-88
2022/05/16 06:06:29;;;;;;;2.25;1.40;;;;;;;22.31;34.32;100201.28;4342607;33;34495;-88
2022/05/16 06:08:58;;;;;;;3.90;1.60;;;;;;;22.22;34.96;100209.19;4328060;33;34083;-88
2022/05/16 06:11:31;;;;;;;3.72;1.70;;;;;;;21.91;36.77;100218.09;4343249;33;33968;-88
2022/05/16 06:14:04;;;;;;;2.35;1.50;;;;;;;22.44;34.36;100204.62;4339241;33;34710;-87
2022/05/16 06:16:32;;;;;;;2.90;1.00;;;;;;;22.61;34.50;100205.84;4341557;33;34283;-87
2022/05/16 06:19:03;;;;;;;7.80;2.00;;;;;;;22.28;32.32;100204.25;4340091;33;32435;-87
2022/05/16 06:21:32;;;;;;;6.90;1.50;;;;;;;22.12;33.20;100208.25;4340780;33;33921;-87
2022/05/16 06:23:59;;;;;;;3.08;1.25;;;;;;;22.38;32.68;100208.69;4343431;33;32192;-87
2022/05/16 06:26:28;;;;;;;3.05;1.50;;;;;;;22.55;32.96;100206.37;4316173;33;34583;-89
2022/05/16 06:28:57;;;;;;;5.85;1.30;;;;;;;22.28;33.90;100209.63;4345251;33;33346;-90
2022/05/16 06:31:25;;;;;;;4.43;1.42;;;;;;;22.13;33.19;100209.97;4332782;33;34064;-89
2022/05/16 06:33:53;;;;;;;4.20;1.40;;;;;;;22.34;33.67;100207.25;4345289;33;34582;-90
2022/05/16 06:36:22;;;;;;;5.43;1.58;;;;;;;22.65;33.81;100202.75;4318410;33;34724;-89
2022/05/16 06:38:50;;;;;;;3.17;1.67;;;;;;;23.12;33.90;100205.81;4344950;33;32821;-89
2022/05/16 06:41:18;;;;;;;4.28;1.62;;;;;;;22.78;32.49;100212.44;4344956;33;33996;-89
2022/05/16 06:43:47;;;;;;;4.55;1.50;;;;;;;23.19;32.42;100189.94;4332467;33;33410;-89
2022/05/16 06:46:16;;;;;;;4.22;1.35;;;;;;;23.33;32.21;100186.84;4332675;33;32846;-89
2022/05/16 06:48:49;;;;;;;3.60;1.62;;;;;;;22.78;31.87;100204.34;4344399;33;33362;-89
2022/05/16 06:51:17;;;;;;;4.30;1.40;;;;;;;23.12;32.92;100202.22;4344919;33;32823;-89
2022/05/16 06:53:47;;;;;;;3.12;1.23;;;;;;;22.92;31.56;100204.88;4332911;33;34494;-89
2022/05/16 06:56:18;;;;;;;3.47;1.80;;;;;;;22.95;32.29;100204.59;4339374;33;34875;-89
2022/05/16 06:58:46;;;;;;;2.87;1.23;;;;;;;23.08;31.75;100209.75;4332424;33;32971;-89
2022/05/16 07:01:16;;;;;;;6.25;1.80;;;;;;;23.22;32.34;100211.22;4344963;33;33404;-89
2022/05/16 07:03:46;;;;;;;3.60;1.58;;;;;;;23.16;31.85;100209.06;4332807;33;33839;-90
2022/05/16 07:06:17;;;;;;;7.95;1.30;;;;;;;23.17;31.95;100213.47;4344787;33;33751;-89
2022/05/16 07:08:46;;;;;;;6.00;2.03;;;;;;;23.58;33.13;100207.00;4332460;33;32934;-89
2022/05/16 07:11:15;;;;;;;9.02;2.25;;;;;;;23.31;31.90;100209.50;4344843;33;34217;-89
2022/05/16 07:13:44;;;;;;;4.85;1.35;;;;;;;23.55;32.85;100201.91;4344738;33;33214;-89
2022/05/16 07:16:13;;;;;;;4.43;1.80;;;;;;;23.58;33.41;100201.62;4344633;33;34015;-90
2022/05/16 07:18:43;;;;;;;6.87;2.42;;;;;;;23.86;31.22;100205.34;4344702;33;33659;-89
2022/05/16 07:21:13;;;;;;;7.72;1.87;;;;;;;23.83;32.86;100204.78;4344739;33;33033;-89
2022/05/16 07:23:40;;;;;;;9.65;1.73;;;;;;;24.07;31.86;100198.94;4332030;33;33007;-89
2022/05/16 07:28:55;;;;;;;5.72;2.53;;;;;;;23.91;30.97;100215.72;4342277;33;33256;-89
2022/05/16 07:31:25;;;;;;;3.97;2.53;;;;;;;23.90;31.06;100211.31;4344472;33;33083;-89
2022/05/16 07:33:54;;;;;;;3.47;1.40;;;;;;;24.17;30.85;100206.03;4343932;33;33968;-89
2022/05/16 07:36:21;;;;;;;3.92;1.60;;;;;;;24.09;31.75;100207.75;4341352;33;33671;-89
2022/05/16 07:38:50;;;;;;;6.37;1.40;;;;;;;24.24;30.99;100199.06;4331118;33;32798;-89
2022/05/16 07:41:19;;;;;;;10.38;1.70;;;;;;;24.47;31.40;100199.59;4344491;33;32907;-89
2022/05/16 07:43:47;;;;;;;3.28;1.50;;;;;;;24.82;30.27;100202.59;4344364;33;33309;-89
2022/05/16 07:46:20;;;;;;;7.12;2.22;;;;;;;24.56;30.09;100197.88;4342861;33;34495;-89
2022/05/16 07:48:51;;;;;;;1.48;0.90;;;;;;;24.49;31.29;100200.28;4332091;33;32803;-89
2022/05/16 07:51:22;;;;;;;3.22;1.37;;;;;;;24.66;28.81;100205.94;4332235;33;32267;-88
2022/05/16 07:53:52;;;;;;;3.15;1.05;;;;;;;24.45;29.71;100207.00;4344345;33;33737;-88
2022/05/16 07:56:23;;;;;;;4.68;1.85;;;;;;;24.53;28.56;100209.81;4344070;33;33336;-89
2022/05/16 07:58:52;;;;;;;3.67;1.60;;;;;;;24.75;30.90;100218.56;4344248;33;32492;-88
2022/05/16 08:01:20;;;;;;;7.00;1.23;;;;;;;24.80;28.91;100213.56;4331569;33;32876;-88
2022/05/16 08:03:48;;;;;;;4.97;1.98;;;;;;;25.04;27.51;100219.28;4343574;33;33947;-88
2022/05/16 08:06:16;;;;;;;7.28;2.03;;;;;;;25.32;27.75;100210.34;4341330;33;33572;-87
2022/05/16 08:11:31;;;;;;;7.00;1.75;;;;;;;26.00;26.07;100208.00;4342845;33;33454;-87
2022/05/16 08:14:02;;;;;;;3.70;1.40;;;;;;;25.66;28.11;100208.66;4339234;33;34177;-87
2022/05/16 08:16:33;;;;;;;;;;;;;;;25.60;26.98;100209.28;4316022;33;33226;-87
2022/05/16 08:19:01;;;;;;;4.28;1.87;;;;;;;25.63;28.70;100208.97;4343335;33;33609;-87
2022/05/16 08:21:29;;;;;;;4.43;1.42;;;;;;;26.04;27.04;100203.97;4343731;33;34571;-87
2022/05/16 08:23:58;;;;;;;4.03;1.85;;;;;;;26.09;26.76;100207.06;4343508;33;34547;-87
2022/05/16 08:26:29;;;;;;;3.45;2.15;;;;;;;26.28;26.21;100204.16;4325706;33;33126;-87
2022/05/16 08:29:04;;;;;;;5.35;2.25;;;;;;;26.25;27.01;100206.31;4337510;33;33595;-87
2022/05/16 08:31:32;;;;;;;6.07;1.90;;;;;;;26.13;26.58;100200.31;4343748;33;34403;-87
2022/05/16 08:34:00;;;;;;;4.65;1.60;;;;;;;26.46;27.24;100203.28;4343392;33;33307;-87
2022/05/16 08:42:12;;;;;;;2.47;1.40;;;;;;;26.37;28.55;100201.50;4342426;33;33132;-87
2022/05/16 08:44:49;;;;;;;9.23;2.37;;;;;;;26.72;25.58;100200.56;4334448;33;32905;-87
2022/05/16 08:47:53;;;;;;;3.75;1.77;;;;;;;26.36;26.49;100199.81;4335235;33;33992;-87
2022/05/16 08:50:49;;;;;;;3.97;1.50;;;;;;;26.17;29.08;100201.72;4335425;33;33176;-87
2022/05/16 08:53:40;;;;;;;8.68;1.67;;;;;;;26.30;29.28;100194.03;4306366;33;32641;-87
2022/05/16 08:56:15;;;;;;;5.62;2.37;;;;;;;26.66;27.29;100191.22;4323697;33;32329;-87
2022/05/16 08:58:51;;;;;;;4.85;2.10;;;;;;;26.88;25.62;100195.22;4347210;33;33212;-87
2022/05/16 09:01:26;;;;;;;5.05;1.73;;;;;;;26.99;27.94;100202.22;4347634;33;32765;-87
2022/05/16 09:04:03;;;;;;;5.50;1.58;;;;;;;27.27;24.69;100198.28;4348460;33;34746;-88
2022/05/16 09:06:38;;;;;;;3.42;1.17;;;;;;;27.49;27.67;100198.69;4348017;33;32852;-87
2022/05/16 09:09:14;;;;;;;3.70;1.87;;;;;;;27.66;25.87;100194.97;4330338;33;34168;-87
2022/05/16 09:12:14;;;;;;;1.90;1.30;;;;;;;27.99;25.60;100195.00;4347781;33;32491;-87
2022/05/16 09:14:48;;;;;;;3.83;1.92;;;;;;;27.57;26.94;100198.66;4346633;33;34346;-87
2022/05/16 09:17:59;;;;;;;8.35;1.33;;;;;;;27.65;27.26;100197.84;4332630;33;33720;-87
2022/05/16 09:20:46;;;;;;;2.37;1.10;;;;;;;28.23;26.82;100188.72;4333156;33;33847;-88
2022/05/16 09:23:33;;;;;;;4.78;2.08;;;;;;;28.02;25.96;100183.81;4336048;33;32587;-89
2022/05/16 09:29:18;;;;;;;3.72;1.65;;;;;;;27.96;28.72;100179.91;4331331;33;33332;-88
2022/05/16 09:31:49;;;;;;;7.57;1.90;;;;;;;28.81;25.43;100177.56;4347590;33;32925;-88
2022/05/16 09:34:28;;;;;;;;;;;;;;;28.84;25.15;100176.37;4323208;33;32536;-84
2022/05/16 09:37:03;;;;;;;5.25;2.12;;;;;;;28.72;24.31;100167.75;4345927;33;34262;-85
2022/05/16 09:39:35;;;;;;;4.07;1.90;;;;;;;28.30;24.34;100168.00;4346030;33;34216;-85
2022/05/16 09:42:10;;;;;;;10.13;2.08;;;;;;;28.42;25.29;100163.09;4335092;33;32608;-85
2022/05/16 09:44:45;;;;;;;4.15;2.28;;;;;;;28.41;23.65;100161.41;4347202;32;32326;-85
2022/05/16 09:47:22;;;;;;;4.40;1.92;;;;;;;28.23;25.84;100158.84;4342789;33;32556;-85
2022/05/16 09:50:16;;;;;;;6.05;1.80;;;;;;;27.98;24.95;100155.31;4334577;33;33065;-84
2022/05/16 09:53:10;;;;;;;6.32;2.25;;;;;;;28.18;25.04;100158.50;4331323;33;32983;-85
2022/05/16 09:55:49;;;;;;;5.75;2.58;;;;;;;28.38;26.12;100156.28;4331773;33;33847;-84
2022/05/16 09:58:22;;;;;;;4.18;2.50;;;;;;;29.21;23.72;100148.53;4346947;33;33767;-85
2022/05/16 10:01:00;;;;;;;8.70;1.92;;;;;;;29.11;23.16;100153.34;4342865;33;33921;-84
2022/05/16 10:03:31;;;;;;;4.25;2.12;;;;;;;29.02;23.46;100144.38;4343891;32;33510;-85
2022/05/16 10:06:08;;;;;;;7.70;2.20;;;;;;;28.34;25.38;100147.66;4321814;33;32454;-85
2022/05/16 10:08:36;;;;;;;3.85;1.52;;;;;;;28.44;25.52;100142.00;4349160;32;33323;-85
2022/05/16 10:11:25;;;;;;;7.47;1.75;;;;;;;28.39;26.14;100144.41;4330105;33;33728;-85
2022/05/16 10:13:56;;;;;;;5.15;1.73;;;;;;;28.92;24.52;100142.88;4345650;33;32649;-84
2022/05/16 10:16:27;;;;;;;3.65;2.12;;;;;;;29.64;25.08;100131.75;4341013;32;34657;-85
2022/05/16 10:19:00;;;;;;;3.42;1.67;;;;;;;29.28;24.04;100133.16;4339698;33;33819;-85
2022/05/16 10:21:32;;;;;;;6.35;2.15;;;;;;;29.06;23.73;100134.00;4340394;33;34438;-84
2022/05/16 10:24:04;;;;;;;6.18;2.03;;;;;;;28.95;24.19;100134.38;4332765;33;34097;-85
2022/05/16 10:26:44;;;;;;;6.90;2.03;;;;;;;28.56;24.60;100135.19;4334329;33;32074;-85
2022/05/16 10:29:17;;;;;;;4.30;1.60;;;;;;;28.98;23.51;100136.75;4345070;33;33859;-85
2022/05/16 10:34:50;;;;;;;4.15;1.70;;;;;;;28.48;25.08;100132.50;4333112;33;33807;-84
2022/05/16 10:37:21;;;;;;;7.43;1.98;;;;;;;28.40;25.72;100137.97;4320314;33;32496;-85
2022/05/16 10:40:09;;;;;;;2.72;1.67;;;;;;;28.14;26.14;100130.84;4345062;33;35622;-85
2022/05/16 10:42:46;;;;;;;5.15;1.67;;;;;;;27.75;27.13;100133.44;4331852;33;33653;-85
2022/05/16 10:45:20;;;;;;;6.20;1.77;;;;;;;28.11;26.25;100131.22;4314548;33;33108;-85
2022/05/16 10:47:53;;;;;;;8.50;1.80;;;;;;;28.05;25.70;100132.72;4341956;33;32811;-85
2022/05/16 10:50:30;;;;;;;5.05;2.08;;;;;;;28.07;27.02;100130.72;4334465;33;33077;-85
2022/05/16 10:53:06;;;;;;;1.83;1.60;;;;;;;28.05;26.42;100129.19;4346251;33;34630;-85
2022/05/16 10:55:42;;;;;;;3.53;1.83;;;;;;;28.46;26.18;100121.81;4343391;33;33958;-86
2022/05/16 10:58:32;;;;;;;4.70;1.85;;;;;;;28.85;25.16;100120.97;4342319;33;34818;-86
2022/05/16 11:01:16;;;;;;;5.37;2.40;;;;;;;29.22;24.65;100120.28;4342381;33;33957;-85
2022/05/16 11:03:59;;;;;;;5.53;1.92;;;;;;;29.29;27.06;100117.69;4329937;33;34477;-85
2022/05/16 11:06:39;;;;;;;4.18;2.33;;;;;;;29.58;24.52;100115.13;4345655;33;34743;-85
2022/05/16 11:09:35;;;;;;;2.20;1.40;;;;;;;29.66;23.42;100114.22;4343400;33;34049;-85
2022/05/16 11:12:09;;;;;;;5.93;2.55;;;;;;;30.13;22.11;100110.41;4328546;33;31690;-85
2022/05/16 11:14:52;;;;;;;5.65;1.77;;;;;;;30.38;22.88;100101.94;4325118;33;34069;-85
2022/05/16 11:17:46;;;;;;;4.60;1.50;;;;;;;30.40;22.57;100100.75;4340424;33;33354;-85
2022/05/16 11:20:35;;;;;;;9.00;1.98;;;;;;;30.65;22.43;100104.00;4342499;33;33002;-85
2022/05/16 11:23:35;;;;;;;4.07;2.30;;;;;;;30.60;22.26;100098.28;4332544;33;34649;-85
2022/05/16 11:26:16;;;;;;;4.40;2.10;;;;;;;30.55;22.17;100093.41;4332259;33;33770;-86
2022/05/16 11:32:00;;;;;;;7.15;2.25;;;;;;;30.24;23.65;100090.03;4343801;33;33329;-84
2022/05/16 11:34:49;;;;;;;7.30;2.72;;;;;;;30.29;21.97;100084.84;4330442;33;32857;-84
2022/05/16 11:37:48;;;;;;;3.83;2.28;;;;;;;30.31;21.90;100086.38;4342387;33;34113;-84
2022/05/16 11:40:21;;;;;;;8.18;2.85;;;;;;;29.88;23.38;100084.44;4330955;33;34326;-85
2022/05/16 11:43:06;;;;;;;6.40;1.92;;;;;;;30.07;23.50;100073.84;4342141;33;33525;-84
2022/05/16 11:46:13;;;;;;;3.58;1.83;;;;;;;30.43;22.19;100067.66;4331878;33;33703;-85
2022/05/16 11:49:24;;;;;;;4.32;2.30;;;;;;;30.38;23.67;100053.75;4338352;33;33675;-85
2022/05/16 11:52:18;;;;;;;3.97;1.95;;;;;;;30.24;24.77;100057.34;4340838;33;33259;-85
2022/05/16 12:00:54;;;;;;;7.40;2.05;;;;;;;31.06;23.64;100057.97;4330295;33;33028;-85
2022/05/16 12:03:34;;;;;;;3.50;2.05;;;;;;;31.38;21.97;100050.31;4332666;33;34108;-85
2022/05/16 12:06:25;;;;;;;8.02;3.20;;;;;;;31.23;22.00;100053.09;4342278;33;33800;-85
2022/05/16 12:09:14;;;;;;;6.57;2.28;;;;;;;31.32;25.45;100049.22;4318711;33;33266;-85
2022/05/16 12:12:00;;;;;;;6.55;2.55;;;;;;;31.49;24.38;100038.06;4338038;33;33431;-84
2022/05/16 12:14:35;;;;;;;4.53;2.05;;;;;;;31.69;21.54;100035.47;4338853;33;33930;-85
2022/05/16 12:17:08;;;;;;;4.43;2.30;;;;;;;31.58;25.16;100040.44;4341663;33;33982;-85
2022/05/16 12:19:43;;;;;;;5.87;1.80;;;;;;;30.91;24.24;100039.97;4334960;33;34343;-85
2022/05/16 12:22:26;;;;;;;4.47;1.87;;;;;;;31.10;23.36;100031.16;4342701;33;33449;-86
2022/05/16 12:25:28;;;;;;;4.93;1.85;;;;;;;31.72;24.86;100029.63;4331528;33;33865;-85
2022/05/16 12:28:19;;;;;;;3.97;1.83;;;;;;;31.80;22.68;100022.12;4335763;33;33534;-85
2022/05/16 12:30:56;;;;;;;7.97;2.60;;;;;;;31.68;22.82;100018.25;4328765;33;32422;-84
2022/05/16 12:33:41;;;;;;;8.23;2.22;;;;;;;31.46;23.33;100019.34;4334461;33;32559;-88